Time;durP1;ratioP1;P1;durP2;ratioP2;P2;SDS_P1;SDS_P2;PMS_P1;PMS_P2;Temp;Humidity;BMP_temperature;BMP_pressure;BME280_temperature;BME280_humidity;BME280_pressure;Samples;Min_cycle;Max_cycle;Signal;HPM_P1;HPM_P2
2022/11/06 00:00:37;;;;;;;1.63;1.53;;;;;;;16.54;87.12;94956.06;5113111;28;20437;-55
2022/11/06 00:03:06;;;;;;;0.80;0.80;;;;;;;16.55;86.76;94957.63;5112686;28;20431;-55
2022/11/06 00:08:29;;;;;;;0.40;0.27;;;;;;;16.78;83.11;94965.19;5113350;28;20839;-55
2022/11/06 00:10:57;;;;;;;0.40;0.20;;;;;;;16.82;82.19;94960.00;5112983;28;20433;-55
2022/11/06 00:13:27;;;;;;;0.40;0.30;;;;;;;16.75;82.59;94962.34;5113247;28;20850;-54
2022/11/06 00:15:55;;;;;;;0.80;0.40;;;;;;;16.65;83.51;94955.41;5112890;28;20430;-54
2022/11/06 00:18:27;;;;;;;0.50;0.37;;;;;;;16.62;83.25;94961.41;5112790;28;20434;-54
2022/11/06 00:20:55;;;;;;;0.43;0.33;;;;;;;16.68;82.42;94964.72;5113103;28;20433;-54
2022/11/06 00:23:24;;;;;;;0.50;0.40;;;;;;;16.52;82.46;94957.16;5112681;28;20445;-54
2022/11/06 00:25:55;;;;;;;0.93;0.93;;;;;;;16.28;84.80;94958.69;5112458;28;20494;-54
2022/11/06 00:28:23;;;;;;;0.50;0.47;;;;;;;16.42;84.86;94949.41;5112631;28;20442;-54
2022/11/06 00:31:01;;;;;;;0.50;0.40;;;;;;;15.93;92.09;94959.72;5112956;28;20431;-54
2022/11/06 00:33:29;;;;;;;0.40;0.30;;;;;;;16.11;90.81;94948.78;5113139;28;20437;-54
2022/11/06 00:35:58;;;;;;;1.00;0.63;;;;;;;16.41;86.38;94949.72;5112156;28;20445;-55
2022/11/06 00:38:26;;;;;;;0.60;0.33;;;;;;;16.37;85.71;94944.22;5112662;28;20938;-54
2022/11/06 00:40:54;;;;;;;0.40;0.30;;;;;;;16.53;85.38;94944.56;5112536;28;20928;-55
2022/11/06 00:43:22;;;;;;;0.50;0.50;;;;;;;16.69;84.05;94942.22;5112787;28;20434;-54
2022/11/06 00:45:51;;;;;;;1.37;1.27;;;;;;;16.79;82.69;94931.19;5112316;28;20477;-54
2022/11/06 00:48:20;;;;;;;0.40;0.30;;;;;;;16.74;82.83;94934.81;5111010;28;20423;-54
2022/11/06 00:50:49;;;;;;;4.27;0.60;;;;;;;16.77;82.32;94930.72;5112315;28;20440;-54
2022/11/06 00:53:17;;;;;;;0.77;0.77;;;;;;;16.82;82.21;94934.00;5112680;28;20411;-54
2022/11/06 00:55:45;;;;;;;0.40;0.30;;;;;;;16.31;81.64;94846.53;5112592;28;20427;-54
2022/11/06 00:58:13;;;;;;;0.50;0.40;;;;;;;16.80;82.33;94922.06;5112316;28;20426;-54
2022/11/06 01:00:42;;;;;;;0.97;0.87;;;;;;;16.44;84.66;94923.13;5112474;28;20438;-54
2022/11/06 01:03:11;;;;;;;0.40;0.40;;;;;;;16.17;88.56;94933.34;5112523;28;20445;-55
2022/11/06 01:05:40;;;;;;;0.40;0.30;;;;;;;16.31;88.76;94928.66;5112386;28;20542;-54
2022/11/06 01:08:09;;;;;;;0.60;0.40;;;;;;;16.66;85.11;94932.94;5112372;28;20441;-54
2022/11/06 01:10:38;;;;;;;1.23;0.60;;;;;;;16.71;83.84;94921.25;5112197;28;20430;-55
2022/11/06 01:13:06;;;;;;;1.33;0.30;;;;;;;16.55;86.03;94922.84;5112151;28;20439;-55
2022/11/06 01:15:36;;;;;;;0.97;0.97;;;;;;;16.29;87.03;94928.94;5112559;28;20423;-55
2022/11/06 01:18:05;;;;;;;1.33;1.23;;;;;;;16.39;86.24;94917.94;5112096;28;20433;-55
2022/11/06 01:20:33;;;;;;;0.43;0.40;;;;;;;16.49;86.49;94914.19;5112238;28;20498;-55
2022/11/06 01:23:02;;;;;;;0.40;0.40;;;;;;;16.99;82.03;94917.13;5112372;28;20437;-55
2022/11/06 01:25:31;;;;;;;0.40;0.30;;;;;;;16.50;85.15;94926.44;5112112;28;20473;-54
2022/11/06 01:27:59;;;;;;;0.40;0.20;;;;;;;17.02;81.50;94914.59;5111975;28;20430;-55
2022/11/06 01:30:27;;;;;;;0.40;0.40;;;;;;;17.08;81.11;94912.53;5112099;28;20426;-55
2022/11/06 01:32:55;;;;;;;0.47;0.33;;;;;;;17.00;80.87;94900.72;5112264;28;20802;-55
2022/11/06 01:35:24;;;;;;;0.50;0.43;;;;;;;16.96;81.22;94909.72;5112251;28;20450;-55
2022/11/06 01:37:52;;;;;;;0.40;0.30;;;;;;;17.12;80.52;94911.59;5111909;28;20943;-55
2022/11/06 01:40:22;;;;;;;0.40;0.30;;;;;;;16.96;81.47;94901.69;5112187;28;20427;-55
2022/11/06 01:42:50;;;;;;;0.50;0.30;;;;;;;16.79;81.89;94897.19;5112017;28;20419;-55
2022/11/06 01:45:31;;;;;;;0.60;0.50;;;;;;;17.02;80.89;94905.78;5112103;28;20466;-55
2022/11/06 01:48:00;;;;;;;0.67;0.67;;;;;;;17.22;79.56;94901.63;5112219;28;20433;-55
2022/11/06 01:50:28;;;;;;;0.40;0.20;;;;;;;17.36;78.12;94899.50;5112021;28;20438;-55
2022/11/06 01:52:59;;;;;;;3.37;1.63;;;;;;;17.35;78.11;94903.31;5112200;28;20824;-55
2022/11/06 01:55:35;;;;;;;0.50;0.40;;;;;;;17.18;78.58;94901.47;5112046;28;20429;-55
2022/11/06 01:58:06;;;;;;;0.97;0.87;;;;;;;17.01;79.87;94906.88;5112047;28;20535;-55
2022/11/06 02:00:34;;;;;;;0.40;0.30;;;;;;;17.14;79.47;94908.59;5115912;28;20429;-55
2022/11/06 02:03:04;;;;;;;1.23;0.80;;;;;;;16.90;78.66;94863.59;5115536;27;20436;-55
2022/11/06 02:05:32;;;;;;;2.37;0.57;;;;;;;16.46;83.32;94909.47;5115349;28;20566;-55
2022/11/06 02:08:01;;;;;;;3.73;1.17;;;;;;;16.75;82.24;94911.50;5115394;28;20427;-55
2022/11/06 02:10:31;;;;;;;0.40;0.30;;;;;;;16.95;80.64;94916.19;5115368;28;20423;-54
2022/11/06 02:13:16;;;;;;;0.40;0.30;;;;;;;17.06;79.56;94906.72;5115566;28;20812;-55
2022/11/06 02:15:50;;;;;;;0.40;0.30;;;;;;;16.43;80.55;94835.97;5115375;28;20451;-55
2022/11/06 02:18:47;;;;;;;0.40;0.27;;;;;;;17.27;78.18;94912.94;5114841;28;20448;-55
2022/11/06 02:21:31;;;;;;;0.40;0.20;;;;;;;17.32;77.55;94901.28;5112507;28;20445;-55
2022/11/06 02:24:19;;;;;;;0.50;0.43;;;;;;;17.14;78.31;94905.91;5115104;28;20427;-55
2022/11/06 02:27:00;;;;;;;0.40;0.30;;;;;;;17.23;78.65;94912.00;5114677;28;20493;-55
2022/11/06 02:29:34;;;;;;;0.60;0.50;;;;;;;17.36;76.87;94902.97;5114626;28;20542;-55
2022/11/06 02:32:08;;;;;;;0.40;0.30;;;;;;;17.40;76.44;94895.88;5114926;28;20804;-55
2022/11/06 02:34:38;;;;;;;0.83;0.43;;;;;;;17.01;78.58;94906.88;5114640;28;20433;-55
2022/11/06 02:37:12;;;;;;;4.60;1.03;;;;;;;17.30;77.15;94898.13;5114492;28;20918;-55
2022/11/06 02:39:44;;;;;;;1.10;0.30;;;;;;;17.29;77.19;94889.31;5114464;28;20445;-55
2022/11/06 02:42:18;;;;;;;0.40;0.30;;;;;;;17.04;77.84;94892.84;5114367;28;20425;-55
2022/11/06 02:44:50;;;;;;;5.60;0.40;;;;;;;17.14;77.03;94905.91;5114641;28;20450;-55
2022/11/06 02:47:21;;;;;;;0.40;0.30;;;;;;;17.19;76.86;94903.06;5114572;28;20477;-55
2022/11/06 02:49:54;;;;;;;0.40;0.20;;;;;;;17.14;76.66;94905.91;5114589;28;20430;-55
2022/11/06 02:52:28;;;;;;;0.60;0.30;;;;;;;17.13;76.37;94902.44;5114047;28;20437;-55
2022/11/06 02:55:04;;;;;;;0.40;0.20;;;;;;;17.02;77.49;94900.44;5114400;28;20438;-55
2022/11/06 02:57:38;;;;;;;0.40;0.20;;;;;;;17.02;77.29;94906.56;5114169;27;20434;-55
2022/11/06 03:00:09;;;;;;;0.40;0.20;;;;;;;16.96;77.30;94891.78;5114336;27;20786;-55
2022/11/06 03:02:44;;;;;;;0.40;0.40;;;;;;;17.02;77.11;94903.09;5113909;28;20435;-54
2022/11/06 03:05:17;;;;;;;0.87;0.77;;;;;;;17.00;77.09;94882.00;5114252;28;20426;-54
2022/11/06 03:07:50;;;;;;;2.00;2.00;;;;;;;16.83;78.75;94891.94;5114198;28;20447;-55
2022/11/06 03:10:19;;;;;;;0.50;0.30;;;;;;;16.85;78.75;94901.25;5113551;28;20438;-55
2022/11/06 03:12:56;;;;;;;0.40;0.30;;;;;;;16.54;80.61;94902.56;5113749;28;20433;-55
2022/11/06 03:15:33;;;;;;;0.50;0.30;;;;;;;16.86;79.15;94896.69;5114076;28;20453;-54
2022/11/06 03:18:10;;;;;;;0.40;0.20;;;;;;;16.99;78.39;94893.03;5113723;28;20433;-54
2022/11/06 03:20:44;;;;;;;0.40;0.30;;;;;;;17.04;78.18;94895.53;5114041;28;20506;-55
2022/11/06 03:23:18;;;;;;;0.40;0.30;;;;;;;17.07;77.71;94895.69;5114013;28;20462;-55
2022/11/06 03:25:50;;;;;;;0.40;0.30;;;;;;;17.02;77.86;94884.38;5113727;28;20500;-55
2022/11/06 03:28:28;;;;;;;0.40;0.37;;;;;;;16.98;78.48;94880.75;5113391;28;20443;-55
2022/11/06 03:31:02;;;;;;;0.40;0.30;;;;;;;16.95;78.89;94882.16;5113683;28;20482;-55
2022/11/06 03:33:36;;;;;;;0.40;0.20;;;;;;;17.04;78.53;94877.59;5113484;28;20425;-55
2022/11/06 03:36:10;;;;;;;0.70;0.63;;;;;;;16.81;79.57;94878.91;5113478;28;20414;-55
2022/11/06 03:38:43;;;;;;;0.70;0.30;;;;;;;16.36;78.75;94790.22;5113653;28;20804;-55
2022/11/06 03:41:17;;;;;;;0.50;0.40;;;;;;;16.95;78.84;94878.72;5113335;28;20418;-55
2022/11/06 03:43:49;;;;;;;1.57;1.33;;;;;;;16.50;81.15;94880.97;5113469;28;20436;-55
2022/11/06 03:46:23;;;;;;;0.70;0.50;;;;;;;15.74;87.14;94867.25;5113108;28;20551;-55
2022/11/06 03:48:55;;;;;;;0.60;0.53;;;;;;;15.89;89.31;94868.69;5113401;27;20434;-55
2022/11/06 03:51:30;;;;;;;0.40;0.30;;;;;;;16.21;86.69;94860.22;5113137;27;20465;-55
2022/11/06 03:54:02;;;;;;;0.40;0.40;;;;;;;16.21;85.78;94870.13;5113221;28;20429;-55
2022/11/06 03:56:37;;;;;;;0.60;0.60;;;;;;;15.72;90.54;94860.66;5113331;28;20427;-54
2022/11/06 03:59:08;;;;;;;0.60;0.50;;;;;;;15.77;91.39;94847.16;5112914;28;20437;-54
2022/11/06 04:01:43;;;;;;;0.60;0.40;;;;;;;16.15;89.10;94866.81;5112860;28;20504;-55
2022/11/06 04:04:17;;;;;;;0.50;0.37;;;;;;;16.22;87.81;94845.75;5112718;28;20421;-55
2022/11/06 04:06:51;;;;;;;1.73;0.70;;;;;;;16.20;88.08;94855.19;5112882;28;21192;-55
2022/11/06 04:14:57;;;;;;;0.40;0.30;;;;;;;16.48;84.24;94840.38;5112576;28;20429;-55
2022/11/06 04:17:28;;;;;;;0.50;0.40;;;;;;;16.80;83.00;94860.50;5112575;28;20415;-55
2022/11/06 04:20:00;;;;;;;0.40;0.30;;;;;;;16.89;81.91;94858.56;5112508;28;20431;-55
2022/11/06 04:22:43;;;;;;;0.40;0.30;;;;;;;16.75;82.53;94861.44;5111633;27;20427;-55
2022/11/06 04:28:23;;;;;;;0.40;0.20;;;;;;;16.85;82.08;94852.31;5112308;28;20443;-55
2022/11/06 04:31:05;;;;;;;0.87;0.87;;;;;;;16.86;81.36;94816.38;5112265;28;20429;-55
2022/11/06 04:33:43;;;;;;;0.80;0.80;;;;;;;17.11;80.40;94840.38;5112961;28;20439;-55
2022/11/06 04:36:21;;;;;;;0.63;0.57;;;;;;;17.02;80.80;94839.66;5112608;28;20428;-55
2022/11/06 04:39:01;;;;;;;1.13;0.60;;;;;;;16.29;82.97;94792.56;5112531;28;20422;-55
2022/11/06 04:41:38;;;;;;;0.90;0.90;;;;;;;16.80;82.39;94847.88;5112290;28;20429;-56
2022/11/06 04:44:13;;;;;;;0.40;0.40;;;;;;;17.09;80.64;94844.50;5112174;28;20467;-56
2022/11/06 04:46:47;;;;;;;0.50;0.30;;;;;;;17.23;78.71;94846.97;5112185;28;20472;-56
2022/11/06 04:49:16;;;;;;;0.50;0.40;;;;;;;17.27;78.39;94839.84;5111903;28;20434;-57
2022/11/06 04:51:46;;;;;;;0.50;0.40;;;;;;;17.06;79.71;94843.25;5112465;28;20422;-57
2022/11/06 04:54:15;;;;;;;0.50;0.30;;;;;;;17.30;78.33;94840.00;5112129;28;20925;-55
2022/11/06 04:56:44;;;;;;;0.50;0.30;;;;;;;17.29;77.90;94829.59;5112231;28;20431;-55
2022/11/06 04:59:16;;;;;;;1.17;0.40;;;;;;;17.38;77.41;94825.75;5111888;28;21074;-55
2022/11/06 05:01:46;;;;;;;0.70;0.70;;;;;;;17.20;78.09;94808.22;5111959;28;20438;-55
2022/11/06 05:04:15;;;;;;;4.33;0.30;;;;;;;17.27;78.70;94843.31;5111976;28;20973;-55
2022/11/06 05:06:43;;;;;;;0.40;0.30;;;;;;;17.34;78.01;94843.59;5111914;28;20996;-55
2022/11/06 05:09:11;;;;;;;0.50;0.40;;;;;;;17.21;79.38;94844.59;5111817;28;20431;-56
2022/11/06 05:11:39;;;;;;;0.40;0.30;;;;;;;17.18;80.32;94839.88;5111934;28;20425;-56
2022/11/06 05:14:08;;;;;;;0.90;0.90;;;;;;;17.24;80.33;94849.31;5111909;28;20442;-56
2022/11/06 05:16:36;;;;;;;0.40;0.30;;;;;;;17.34;79.91;94854.31;5112110;28;20434;-56
2022/11/06 05:19:06;;;;;;;0.40;0.33;;;;;;;17.41;80.07;94851.91;5111756;28;20448;-56
2022/11/06 05:24:20;;;;;;;0.80;0.67;;;;;;;17.36;79.62;94860.13;5112019;28;20450;-55
2022/11/06 05:26:48;;;;;;;0.47;0.40;;;;;;;17.12;80.93;94874.09;5111429;28;20488;-56
2022/11/06 05:29:23;;;;;;;0.70;0.70;;;;;;;16.46;86.49;94878.16;5111787;28;20455;-56
2022/11/06 05:31:51;;;;;;;0.70;0.50;;;;;;;16.13;89.58;94889.63;5111613;28;20521;-56
2022/11/06 05:34:21;;;;;;;0.63;0.60;;;;;;;16.12;93.72;94891.50;5113778;28;20426;-56
2022/11/06 05:36:49;;;;;;;0.40;0.30;;;;;;;16.05;97.21;94904.56;5115554;28;20430;-57
2022/11/06 05:39:18;;;;;;;0.40;0.30;;;;;;;16.47;97.03;94911.81;5115957;28;20420;-56
2022/11/06 05:41:46;;;;;;;3.07;0.83;;;;;;;16.42;99.81;94903.94;5115747;28;20430;-56
2022/11/06 05:44:14;;;;;;;0.70;0.70;;;;;;;16.74;99.20;94921.44;5115448;28;21003;-56
2022/11/06 05:46:42;;;;;;;3.60;1.13;;;;;;;15.65;100.00;94753.47;5115738;27;20453;-56
2022/11/06 05:49:17;;;;;;;0.60;0.40;;;;;;;16.79;100.00;94928.50;5115376;28;20514;-56
2022/11/06 05:51:47;;;;;;;0.50;0.40;;;;;;;16.04;100.00;94937.72;5115668;27;20819;-56
2022/11/06 05:54:16;;;;;;;0.40;0.40;;;;;;;16.11;100.00;94950.66;5115288;28;20435;-55
2022/11/06 05:56:44;;;;;;;0.50;0.40;;;;;;;16.04;100.00;94955.69;5115232;28;20899;-55
2022/11/06 05:59:12;;;;;;;0.90;0.90;;;;;;;16.45;100.00;94969.41;5115247;28;20527;-56
2022/11/06 06:01:41;;;;;;;0.60;0.60;;;;;;;16.40;100.00;94973.03;5115431;28;20437;-55
2022/11/06 06:04:09;;;;;;;0.80;0.80;;;;;;;15.98;100.00;94939.00;5115437;28;20497;-56
2022/11/06 06:06:38;;;;;;;14.03;1.10;;;;;;;16.00;100.00;94968.88;5114814;28;20481;-56
2022/11/06 06:09:08;;;;;;;4.53;1.70;;;;;;;15.64;100.00;94963.72;5114985;28;20434;-56
2022/11/06 06:11:36;;;;;;;2.90;1.30;;;;;;;15.63;100.00;94983.53;5115037;28;20804;-55
2022/11/06 06:14:05;;;;;;;2.27;0.80;;;;;;;15.33;100.00;94946.91;5114877;28;20430;-54
2022/11/06 06:16:33;;;;;;;0.50;0.33;;;;;;;15.52;100.00;94984.09;5115072;28;20803;-54
2022/11/06 06:19:01;;;;;;;1.10;0.67;;;;;;;15.57;100.00;94983.97;5115299;28;20419;-55
2022/11/06 06:21:30;;;;;;;0.40;0.20;;;;;;;15.43;100.00;94994.69;5114839;28;20436;-55
2022/11/06 06:23:58;;;;;;;0.40;0.20;;;;;;;15.59;100.00;94995.13;5114940;28;20438;-54
2022/11/06 06:26:28;;;;;;;0.50;0.40;;;;;;;15.92;100.00;95004.38;5114775;28;20477;-55
2022/11/06 06:28:56;;;;;;;0.80;0.70;;;;;;;15.05;100.00;95012.25;5115108;28;20825;-55
2022/11/06 06:31:25;;;;;;;0.50;0.30;;;;;;;15.18;100.00;95014.84;5114895;28;20963;-55
2022/11/06 06:33:53;;;;;;;0.40;0.20;;;;;;;15.41;100.00;95020.13;5114674;28;20430;-55
2022/11/06 06:36:21;;;;;;;0.60;0.60;;;;;;;15.55;100.00;95026.22;5114713;28;20437;-54
2022/11/06 06:38:49;;;;;;;0.60;0.57;;;;;;;15.30;100.00;95038.31;5114617;28;20449;-54
2022/11/06 06:41:18;;;;;;;0.60;0.60;;;;;;;15.41;100.00;95042.28;5114721;28;20432;-54
2022/11/06 06:43:49;;;;;;;0.70;0.70;;;;;;;15.10;100.00;95041.50;5114938;28;20431;-54
2022/11/06 06:46:18;;;;;;;1.53;1.43;;;;;;;15.22;100.00;95045.19;5113540;28;20925;-54
2022/11/06 06:48:46;;;;;;;0.73;0.60;;;;;;;15.15;100.00;95044.03;5114408;28;20476;-54
2022/11/06 06:51:15;;;;;;;1.50;1.40;;;;;;;15.40;100.00;95038.06;5114768;28;20434;-54
2022/11/06 06:53:50;;;;;;;2.20;2.13;;;;;;;15.67;100.00;95053.16;5114443;28;20479;-53
2022/11/06 06:56:18;;;;;;;0.63;0.63;;;;;;;15.60;100.00;95052.81;5114210;28;20438;-54
2022/11/06 06:58:47;;;;;;;7.20;0.73;;;;;;;15.79;100.00;95066.72;5114044;28;20441;-54
2022/11/06 07:01:17;;;;;;;0.40;0.30;;;;;;;15.93;100.00;95016.66;5114029;28;20525;-59
2022/11/06 07:03:45;;;;;;;0.70;0.70;;;;;;;15.80;100.00;95039.72;5114102;28;20442;-55
2022/11/06 07:06:14;;;;;;;0.70;0.70;;;;;;;15.95;100.00;95053.75;5114226;28;20432;-54
2022/11/06 07:08:42;;;;;;;1.40;1.27;;;;;;;15.78;100.00;95059.81;5113955;28;20498;-55
2022/11/06 07:11:11;;;;;;;0.80;0.70;;;;;;;15.78;100.00;95060.63;5114075;28;20434;-55
2022/11/06 07:13:40;;;;;;;0.57;0.57;;;;;;;16.10;100.00;95064.81;5113902;28;20430;-56
2022/11/06 07:16:11;;;;;;;2.00;0.53;;;;;;;15.84;100.00;95066.59;5113897;28;20546;-56
2022/11/06 07:18:41;;;;;;;0.50;0.47;;;;;;;15.86;100.00;95061.75;5113883;27;20426;-55
2022/11/06 07:21:12;;;;;;;0.40;0.30;;;;;;;15.75;100.00;95053.22;5111637;27;20435;-54
2022/11/06 07:23:40;;;;;;;0.73;0.73;;;;;;;15.93;100.00;95062.09;5113228;28;20441;-56
2022/11/06 07:26:08;;;;;;;0.70;0.60;;;;;;;15.66;100.00;95032.91;5113300;28;20478;-55
2022/11/06 07:28:37;;;;;;;0.50;0.40;;;;;;;15.67;100.00;95069.19;5112968;28;20477;-54
2022/11/06 07:31:07;;;;;;;0.50;0.30;;;;;;;15.55;100.00;95068.97;5112495;28;20437;-54
2022/11/06 07:33:36;;;;;;;1.13;0.40;;;;;;;15.48;100.00;95080.09;5111058;28;20525;-56
2022/11/06 07:36:08;;;;;;;0.40;0.30;;;;;;;15.98;100.00;95069.97;5111142;28;20436;-55
2022/11/06 07:38:38;;;;;;;0.40;0.40;;;;;;;15.85;100.00;95066.31;5111012;28;20431;-56
2022/11/06 07:41:08;;;;;;;0.40;0.40;;;;;;;15.63;100.00;95078.91;5111972;27;20427;-55
2022/11/06 07:43:37;;;;;;;0.57;0.57;;;;;;;15.61;100.00;95070.44;5112357;28;20434;-55
2022/11/06 07:46:09;;;;;;;1.63;0.60;;;;;;;15.47;100.00;95091.06;5112466;28;20647;-55
2022/11/06 07:48:38;;;;;;;0.50;0.50;;;;;;;14.92;100.00;95074.47;5112492;28;20473;-55
2022/11/06 07:51:10;;;;;;;0.50;0.40;;;;;;;15.30;100.00;95096.28;5112656;28;20422;-55
2022/11/06 07:53:38;;;;;;;0.50;0.40;;;;;;;15.30;100.00;95101.63;5112496;28;20426;-55
2022/11/06 07:56:08;;;;;;;1.00;1.00;;;;;;;15.16;100.00;95102.44;5112248;28;20805;-55
2022/11/06 07:58:37;;;;;;;1.20;0.77;;;;;;;14.92;100.00;95125.19;5112243;28;20503;-55
2022/11/06 08:01:06;;;;;;;0.97;0.97;;;;;;;14.08;100.00;95025.34;5112362;27;20425;-56
2022/11/06 08:03:34;;;;;;;0.70;0.70;;;;;;;14.35;100.00;95118.63;5112094;28;20806;-54
2022/11/06 08:06:04;;;;;;;0.60;0.40;;;;;;;14.72;100.00;95098.94;5112519;28;20423;-55
2022/11/06 08:08:34;;;;;;;1.47;0.40;;;;;;;14.74;100.00;95131.44;5112465;28;20978;-55
2022/11/06 08:11:02;;;;;;;0.50;0.50;;;;;;;14.59;100.00;95129.88;5112377;27;20421;-54
2022/11/06 08:13:32;;;;;;;0.50;0.40;;;;;;;14.63;100.00;95130.84;5112373;28;20418;-55
2022/11/06 08:16:04;;;;;;;0.60;0.60;;;;;;;14.51;100.00;95135.91;5112688;28;20431;-55
2022/11/06 08:18:32;;;;;;;0.50;0.50;;;;;;;14.63;100.00;95145.00;5112296;28;20456;-54
2022/11/06 08:21:01;;;;;;;0.50;0.43;;;;;;;14.70;100.00;95115.22;5111931;28;20430;-55
2022/11/06 08:23:29;;;;;;;2.10;0.40;;;;;;;14.57;100.00;95138.16;5111889;27;20426;-54
2022/11/06 08:26:01;;;;;;;0.50;0.50;;;;;;;14.68;100.00;95145.97;5111469;28;20483;-54
2022/11/06 08:28:30;;;;;;;0.50;0.40;;;;;;;14.02;100.00;95096.59;5111644;28;20481;-54
2022/11/06 08:30:58;;;;;;;1.23;0.53;;;;;;;14.54;100.00;95151.31;5111704;28;20514;-54
2022/11/06 08:33:26;;;;;;;0.60;0.30;;;;;;;14.33;100.00;95118.13;5111622;28;20436;-54
2022/11/06 08:35:54;;;;;;;0.60;0.50;;;;;;;14.79;100.00;95131.31;5112157;28;20442;-54
2022/11/06 08:38:23;;;;;;;1.40;1.40;;;;;;;14.96;100.00;95145.63;5111537;28;20898;-54
2022/11/06 08:40:51;;;;;;;0.50;0.40;;;;;;;15.24;100.00;95162.34;5111835;28;20425;-55
2022/11/06 08:43:25;;;;;;;1.33;0.80;;;;;;;15.21;100.00;95157.59;5111691;28;20421;-55
2022/11/06 08:45:53;;;;;;;0.40;0.30;;;;;;;15.28;100.00;95160.63;5111251;28;20951;-55
2022/11/06 08:48:22;;;;;;;0.40;0.30;;;;;;;15.31;100.00;95152.03;5111141;28;20518;-55
2022/11/06 08:50:50;;;;;;;0.60;0.40;;;;;;;15.43;100.00;95111.44;5111234;28;20419;-55
2022/11/06 08:53:18;;;;;;;0.40;0.20;;;;;;;15.61;100.00;95162.03;5111277;28;20445;-55
2022/11/06 08:55:47;;;;;;;1.10;0.40;;;;;;;15.56;100.00;95138.09;5111388;28;20466;-56
2022/11/06 08:58:15;;;;;;;0.67;0.67;;;;;;;15.40;100.00;95154.78;5111752;28;20430;-56
2022/11/06 09:00:45;;;;;;;0.40;0.40;;;;;;;15.55;100.00;95162.47;5111775;28;20422;-55
2022/11/06 09:03:16;;;;;;;0.50;0.50;;;;;;;15.58;100.00;95137.81;5111327;28;20832;-56
2022/11/06 09:05:46;;;;;;;0.40;0.30;;;;;;;16.02;100.00;95159.13;5111309;28;20926;-56
2022/11/06 09:08:14;;;;;;;0.40;0.30;;;;;;;15.76;100.00;95167.00;5111503;28;20431;-56
2022/11/06 09:10:44;;;;;;;0.40;0.30;;;;;;;15.92;100.00;95161.28;5115555;28;20486;-56
2022/11/06 09:13:13;;;;;;;3.63;0.50;;;;;;;15.26;100.00;95106.75;5115748;28;20422;-56
2022/11/06 09:15:41;;;;;;;0.40;0.30;;;;;;;15.94;100.00;95143.06;5115515;28;20459;-55
2022/11/06 09:18:12;;;;;;;0.40;0.30;;;;;;;15.86;100.00;95156.06;5115344;28;20431;-56
2022/11/06 09:20:40;;;;;;;0.40;0.30;;;;;;;16.25;100.00;95163.34;5115376;28;20443;-56
2022/11/06 09:23:09;;;;;;;0.40;0.40;;;;;;;16.07;100.00;95164.34;5115344;28;20425;-56
2022/11/06 09:25:38;;;;;;;0.40;0.30;;;;;;;16.62;100.00;95162.06;5115041;28;20934;-56
2022/11/06 09:28:06;;;;;;;0.40;0.30;;;;;;;15.93;100.00;95096.84;5115270;28;20422;-56
2022/11/06 09:30:35;;;;;;;0.50;0.30;;;;;;;16.00;100.00;95145.28;5115129;28;20485;-56
2022/11/06 09:33:03;;;;;;;0.40;0.40;;;;;;;16.21;100.00;95161.59;5115430;27;20431;-57
2022/11/06 09:35:40;;;;;;;0.40;0.30;;;;;;;16.30;100.00;95157.06;5115535;28;20522;-55
2022/11/06 09:38:12;;;;;;;0.40;0.30;;;;;;;16.05;100.00;95174.56;5115401;28;20450;-57
2022/11/06 09:40:46;;;;;;;0.40;0.20;;;;;;;16.41;100.00;95113.69;5115271;28;20421;-56
2022/11/06 09:43:32;;;;;;;0.40;0.40;;;;;;;16.52;100.00;95151.66;5115422;28;20422;-57
2022/11/06 09:46:24;;;;;;;0.50;0.30;;;;;;;16.50;100.00;95153.84;5114843;28;20457;-56
2022/11/06 09:48:58;;;;;;;0.43;0.40;;;;;;;16.10;100.00;95083.53;5114882;27;20448;-56
2022/11/06 09:51:45;;;;;;;0.40;0.20;;;;;;;16.56;100.00;95141.13;5114933;28;20870;-56
2022/11/06 09:54:20;;;;;;;0.40;0.30;;;;;;;16.94;100.00;95155.56;5115024;28;20426;-57
2022/11/06 09:56:53;;;;;;;5.50;0.80;;;;;;;17.30;100.00;95153.41;5115264;28;20422;-56
2022/11/06 09:59:22;;;;;;;0.40;0.23;;;;;;;17.03;100.00;95137.59;5114921;28;20418;-56
2022/11/06 10:01:55;;;;;;;1.47;0.30;;;;;;;17.24;100.00;95111.78;5114903;27;20423;-56
2022/11/06 10:04:40;;;;;;;0.40;0.30;;;;;;;17.31;100.00;95128.16;5115095;28;20430;-56
2022/11/06 10:07:23;;;;;;;0.40;0.40;;;;;;;17.52;100.00;95137.19;5114495;28;20509;-56
2022/11/06 10:09:52;;;;;;;0.40;0.30;;;;;;;17.44;100.00;95140.63;5114404;28;20478;-57
2022/11/06 10:12:32;;;;;;;0.40;0.30;;;;;;;17.45;100.00;95155.59;5114758;28;20423;-57
2022/11/06 10:15:08;;;;;;;0.40;0.30;;;;;;;17.40;100.00;95142.38;5114512;28;20854;-57
2022/11/06 10:17:50;;;;;;;0.40;0.30;;;;;;;16.82;100.00;95131.28;5114606;28;20411;-56
2022/11/06 10:20:21;;;;;;;0.60;0.40;;;;;;;16.40;100.00;95140.75;5114581;28;20510;-57
2022/11/06 10:23:04;;;;;;;0.50;0.50;;;;;;;16.75;100.00;95141.66;5114629;28;20431;-56
2022/11/06 10:25:53;;;;;;;0.83;0.83;;;;;;;17.18;100.00;95145.19;5113991;28;20491;-56
2022/11/06 10:28:42;;;;;;;0.60;0.60;;;;;;;16.61;100.00;95120.38;5114037;28;20444;-56
2022/11/06 10:31:19;;;;;;;1.40;1.33;;;;;;;16.47;100.00;95135.72;5114115;28;20466;-55
2022/11/06 10:33:55;;;;;;;1.37;0.77;;;;;;;16.49;100.00;95133.53;5114304;28;20425;-55
2022/11/06 10:36:29;;;;;;;0.60;0.40;;;;;;;16.26;100.00;95092.72;5114012;28;20426;-55
2022/11/06 10:39:01;;;;;;;1.40;0.80;;;;;;;16.81;100.00;95129.69;5114250;28;20426;-56
2022/11/06 10:41:33;;;;;;;0.50;0.50;;;;;;;16.81;100.00;95133.19;5113983;28;20441;-55
2022/11/06 10:44:06;;;;;;;1.20;1.10;;;;;;;16.79;100.00;95126.56;5113988;28;20434;-56
2022/11/06 10:46:38;;;;;;;0.60;0.60;;;;;;;16.20;100.00;95131.38;5113861;28;20920;-56
2022/11/06 10:49:16;;;;;;;1.40;0.70;;;;;;;15.84;100.00;95114.69;5113572;28;20918;-56
2022/11/06 10:52:02;;;;;;;0.60;0.50;;;;;;;16.43;100.00;95145.47;5114234;28;20461;-55
2022/11/06 10:54:42;;;;;;;1.03;0.93;;;;;;;16.47;100.00;95141.06;5113613;27;20439;-56
2022/11/06 10:57:28;;;;;;;0.93;0.80;;;;;;;16.04;100.00;95122.19;5113539;28;20440;-56
2022/11/06 10:59:57;;;;;;;0.77;0.77;;;;;;;15.56;100.00;95095.38;5113415;28;20439;-56
2022/11/06 11:02:29;;;;;;;15.17;1.67;;;;;;;15.89;100.00;95114.56;5113800;28;20430;-55
2022/11/06 11:04:57;;;;;;;0.60;0.50;;;;;;;16.13;100.00;95127.56;5113353;28;20426;-55
2022/11/06 11:07:29;;;;;;;0.50;0.40;;;;;;;16.15;100.00;95128.84;5113363;28;20886;-55
2022/11/06 11:10:01;;;;;;;1.33;1.23;;;;;;;16.12;100.00;95134.81;5113275;28;20466;-55
2022/11/06 11:12:31;;;;;;;0.70;0.70;;;;;;;16.11;100.00;95130.56;5113586;27;20423;-56
2022/11/06 11:15:12;;;;;;;1.10;0.77;;;;;;;16.30;100.00;95119.63;5113633;28;20426;-55
2022/11/06 11:17:41;;;;;;;0.40;0.30;;;;;;;16.09;100.00;95127.41;5113431;28;20752;-55
2022/11/06 11:20:31;;;;;;;1.53;1.03;;;;;;;15.97;100.00;95131.75;5113089;28;20416;-55
2022/11/06 11:23:06;;;;;;;0.40;0.30;;;;;;;16.37;100.00;95127.97;5113268;27;20423;-56
2022/11/06 11:25:36;;;;;;;0.40;0.30;;;;;;;16.73;100.00;95127.78;5112809;28;20428;-55
2022/11/06 11:28:05;;;;;;;0.50;0.33;;;;;;;16.83;100.00;95122.16;5112946;28;20431;-55
2022/11/06 11:30:33;;;;;;;1.53;0.30;;;;;;;16.59;100.00;95113.75;5112864;28;20461;-55
2022/11/06 11:33:12;;;;;;;0.50;0.40;;;;;;;16.58;100.00;95131.69;5112450;28;20434;-55
2022/11/06 11:35:47;;;;;;;0.40;0.30;;;;;;;16.28;100.00;95105.78;5113177;28;20906;-55
2022/11/06 11:38:17;;;;;;;0.43;0.43;;;;;;;16.41;100.00;95119.03;5112786;28;20418;-55
2022/11/06 11:40:47;;;;;;;1.33;0.60;;;;;;;16.03;100.00;95125.97;5112713;27;20434;-55
2022/11/06 11:43:22;;;;;;;0.50;0.40;;;;;;;16.11;100.00;95133.25;5112442;28;20446;-55
2022/11/06 11:46:17;;;;;;;1.27;1.17;;;;;;;16.07;100.00;95129.59;5113004;28;20431;-55
2022/11/06 11:48:47;;;;;;;2.67;0.70;;;;;;;16.35;100.00;95133.66;5112576;28;20988;-55
2022/11/06 11:51:28;;;;;;;0.50;0.30;;;;;;;16.54;100.00;95121.94;5113251;28;21002;-55
2022/11/06 11:54:00;;;;;;;1.43;0.50;;;;;;;16.29;100.00;95124.16;5112728;28;20442;-55
2022/11/06 11:56:31;;;;;;;2.20;0.50;;;;;;;15.89;100.00;95072.59;5113167;27;20422;-55
2022/11/06 11:59:22;;;;;;;0.93;0.73;;;;;;;16.28;100.00;95133.31;5112916;28;20506;-55
2022/11/06 12:01:51;;;;;;;0.40;0.27;;;;;;;16.07;100.00;95147.50;5112441;28;20431;-55
2022/11/06 12:04:24;;;;;;;0.60;0.60;;;;;;;16.07;100.00;95150.97;5112809;28;20525;-55